Main page
METAR-TAF:

METAR-TAF

Airports :

Red Lake Airport

Red Lake, Ontario, Canada

latitude: 51-04N, longitude: 093-48W, elevation: 375 m

Current weather observation

The report was made 1 hour and 43 minutes ago, at 02:00 UTC
Wind 5 kt from the East
Temperature 5°C
Humidity 60%
Pressure 1019 hPa
Visibility: 24.1 km
Broken clouds at a height of 15000 ft
Broken clouds at a height of 24000 ft

METAR: CYRL 160200Z 09005KT 15SM BKN150 BKN240 05/M02 A3010 RMK AC5CI1 CI TR LAST STFD OBS/NEXT 160900 UTC SLP211

Time: 22:43 (03:43 UTC)

Forecast

The report was made 8 hours and 3 minutes ago, at 19:40 UTC
Forecast valid from 15 at 20 UTC to 16 at 02 UTC
Wind 3 kt from variable directions
Visibility: 10 km
Few clouds at a height of 18000 ft
Becoming
from 15 at 23 UTC to 16 at 01 UTC
Wind 5 kt from the East

TAF: CYRL 151940Z 1520/1602 VRB03KT P6SM FEW180 BECMG 1523/1601 09005KT RMK NXT FCST BY 161100Z

Weather observations and forecasts of more than 4000 airports (METAR and TAF reports).

The available stations are represented by yellow and red dots on the map.

Hover mouse over dot to see the name of the station.

Then click to see weather observations and forecasts.

To change the map : click on the green buttons with a black cross to zoom in, on the green button with a dash to zoom out, or on the green arrows for adjacent maps.


METAR-TAF: